createdAt,value
2023-04-18T00:01:53.713Z,100213.94
2023-04-18T00:04:21.289Z,100214.00
2023-04-18T00:06:50.018Z,100211.28
2023-04-18T00:09:17.082Z,100218.41
2023-04-18T00:11:44.408Z,100213.16
2023-04-18T00:14:12.169Z,100214.81
2023-04-18T00:16:39.510Z,100215.16
2023-04-18T00:19:06.864Z,100209.97
2023-04-18T00:21:33.949Z,100210.78
2023-04-18T00:24:01.029Z,100210.13
2023-04-18T00:26:28.246Z,100218.88
2023-04-18T00:28:55.244Z,100207.63
2023-04-18T00:31:22.146Z,100217.22
2023-04-18T00:33:49.067Z,100219.03
2023-04-18T00:36:15.965Z,100220.81
2023-04-18T00:38:43.581Z,100223.47
2023-04-18T00:41:10.438Z,100207.91
2023-04-18T00:43:37.482Z,100229.75
2023-04-18T00:46:04.545Z,100220.13
2023-04-18T00:48:31.663Z,100206.06
2023-04-18T00:51:00.393Z,100217.47
2023-04-18T00:53:27.997Z,100219.22
2023-04-18T00:55:55.309Z,100225.44
2023-04-18T00:58:23.464Z,100202.78
2023-04-18T01:00:51.005Z,100220.19
2023-04-18T01:03:18.497Z,100216.56
2023-04-18T01:05:46.454Z,100216.56
2023-04-18T01:08:14.634Z,100218.34
2023-04-18T01:10:41.896Z,100220.97
2023-04-18T01:13:16.238Z,100218.44
2023-04-18T01:15:47.693Z,100228.09
2023-04-18T01:18:19.078Z,100204.53
2023-04-18T01:20:48.173Z,100222.84
2023-04-18T01:23:16.963Z,100220.22
2023-04-18T01:25:44.901Z,100221.97
2023-04-18T01:28:14.063Z,100212.34
2023-04-18T01:30:41.219Z,100227.13
2023-04-18T01:33:08.386Z,100229.69
2023-04-18T01:35:35.368Z,100229.94
2023-04-18T01:38:02.497Z,100224.78
2023-04-18T01:40:30.319Z,100225.66
2023-04-18T01:42:57.423Z,100205.38
2023-04-18T01:45:24.440Z,100222.06
2023-04-18T01:47:51.509Z,100222.00
2023-04-18T01:50:18.503Z,100223.75
2023-04-18T01:52:45.689Z,100212.34
2023-04-18T01:55:12.556Z,100221.88
2023-04-18T01:57:39.485Z,100210.66
2023-04-18T02:00:07.717Z,100207.13
2023-04-18T02:02:34.932Z,100210.66
2023-04-18T02:05:02.045Z,100216.75
2023-04-18T02:07:29.057Z,100221.25
2023-04-18T02:09:56.067Z,100224.84
2023-04-18T02:12:23.052Z,100224.84
2023-04-18T02:14:54.041Z,100230.22
2023-04-18T02:17:23.376Z,100217.75
2023-04-18T02:19:53.986Z,100228.34
2023-04-18T02:22:21.027Z,100220.41
2023-04-18T02:24:47.963Z,100224.91
2023-04-18T02:27:14.882Z,100214.41
2023-04-18T02:29:41.935Z,100226.59
2023-04-18T02:32:09.192Z,100220.34
2023-04-18T02:34:36.853Z,100226.50
2023-04-18T02:37:04.370Z,100215.16
2023-04-18T02:39:31.573Z,100224.72
2023-04-18T02:41:58.897Z,100226.44
2023-04-18T02:44:25.814Z,100222.97
2023-04-18T02:46:52.685Z,100223.72
2023-04-18T02:49:20.032Z,100209.84
2023-04-18T02:51:46.908Z,100222.19
2023-04-18T02:54:13.988Z,100226.38
2023-04-18T02:56:42.918Z,100222.97
2023-04-18T02:59:10.049Z,100229.78
2023-04-18T03:01:37.242Z,100231.56
2023-04-18T03:04:04.524Z,100230.56
2023-04-18T03:06:31.899Z,100229.66
2023-04-18T03:08:58.940Z,100235.00
2023-04-18T03:11:26.128Z,100224.38
2023-04-18T03:13:53.933Z,100234.97
2023-04-18T03:16:21.084Z,100238.47
2023-04-18T03:18:48.265Z,100219.31
2023-04-18T03:21:15.125Z,100201.19
2023-04-18T03:23:42.127Z,100227.37
2023-04-18T03:26:09.444Z,100238.72
2023-04-18T03:28:36.403Z,100236.94
2023-04-18T03:31:03.468Z,100242.97
2023-04-18T03:33:30.359Z,100244.91
2023-04-18T03:35:57.286Z,100243.09
2023-04-18T03:38:24.395Z,100242.44
2023-04-18T03:40:51.406Z,100240.78
2023-04-18T03:43:21.037Z,100243.44
2023-04-18T03:45:48.581Z,100252.19
2023-04-18T03:48:16.005Z,100246.94
2023-04-18T03:50:43.045Z,100247.03
2023-04-18T03:53:10.079Z,100251.47
2023-04-18T03:55:36.983Z,100242.72
2023-04-18T03:58:04.092Z,100257.59
2023-04-18T04:00:31.127Z,100255.81
2023-04-18T04:02:58.428Z,100253.25
2023-04-18T04:05:25.595Z,100253.38
2023-04-18T04:07:52.546Z,100252.66
2023-04-18T04:10:19.658Z,100258.69
2023-04-18T04:12:47.033Z,100266.59
2023-04-18T04:15:13.887Z,100264.94
2023-04-18T04:17:40.976Z,100264.88
2023-04-18T04:20:08.404Z,100274.53
2023-04-18T04:22:36.676Z,100278.84
2023-04-18T04:25:05.159Z,100272.53
2023-04-18T04:27:34.076Z,100268.34
2023-04-18T04:30:02.597Z,100274.53
2023-04-18T04:32:30.749Z,100276.25
2023-04-18T04:34:57.649Z,100264.88
2023-04-18T04:37:24.535Z,100279.69
2023-04-18T04:39:52.327Z,100279.69
2023-04-18T04:42:19.875Z,100270.00
2023-04-18T04:44:47.464Z,100283.97
2023-04-18T04:47:14.362Z,100277.09
2023-04-18T04:49:41.326Z,100290.12
2023-04-18T04:52:08.182Z,100281.41
2023-04-18T04:54:41.361Z,100277.06
2023-04-18T04:57:08.196Z,100300.63
2023-04-18T04:59:35.603Z,100283.09
2023-04-18T05:02:02.921Z,100297.25
2023-04-18T05:04:30.054Z,100296.09
2023-04-18T05:06:58.019Z,100294.28
2023-04-18T05:09:25.003Z,100292.44
2023-04-18T05:11:51.871Z,100298.75
2023-04-18T05:14:20.471Z,100293.44
2023-04-18T05:16:47.679Z,100305.53
2023-04-18T05:19:15.060Z,100306.41
2023-04-18T05:21:42.075Z,100306.41
2023-04-18T05:24:09.152Z,100316.81
2023-04-18T05:26:36.083Z,100316.03
2023-04-18T05:29:03.133Z,100318.56
2023-04-18T05:31:30.807Z,100318.41
2023-04-18T05:33:57.894Z,100295.47
2023-04-18T05:36:24.865Z,100328.59
2023-04-18T05:38:51.751Z,100334.84
2023-04-18T05:41:18.609Z,100321.47
2023-04-18T05:43:51.137Z,100329.16
2023-04-18T05:46:25.061Z,100316.22
2023-04-18T05:48:52.009Z,100321.19
2023-04-18T05:51:19.307Z,100328.16
2023-04-18T05:53:46.566Z,100336.94
2023-04-18T05:56:13.503Z,100334.28
2023-04-18T05:58:40.570Z,100323.66
2023-04-18T06:01:07.922Z,100322.44
2023-04-18T06:03:36.021Z,100336.59
2023-04-18T06:06:03.344Z,100332.75
2023-04-18T06:08:30.249Z,100336.13
2023-04-18T06:10:57.428Z,100327.44
2023-04-18T06:13:24.419Z,100339.47
2023-04-18T06:15:51.252Z,100338.34
2023-04-18T06:18:18.165Z,100343.75
2023-04-18T06:20:45.404Z,100347.94
2023-04-18T06:23:12.315Z,100347.28
2023-04-18T06:25:43.301Z,100347.78
2023-04-18T06:28:10.465Z,100349.59
2023-04-18T06:30:37.442Z,100348.59
2023-04-18T06:33:04.402Z,100359.78
2023-04-18T06:35:31.863Z,100347.41
2023-04-18T06:37:58.845Z,100361.56
2023-04-18T06:40:25.702Z,100361.56
2023-04-18T06:42:52.831Z,100352.09
2023-04-18T06:45:19.831Z,100357.97
2023-04-18T06:47:47.807Z,100352.28
2023-04-18T06:50:15.609Z,100359.44
2023-04-18T06:52:45.635Z,100338.91
2023-04-18T06:55:13.650Z,100357.03
2023-04-18T06:57:46.587Z,100336.59
2023-04-18T07:00:19.102Z,100357.91
2023-04-18T07:02:49.214Z,100344.00
2023-04-18T07:05:16.231Z,100355.09
2023-04-18T07:07:43.218Z,100357.34
2023-04-18T07:10:11.498Z,100361.75
2023-04-18T07:12:38.588Z,100359.06
2023-04-18T07:15:05.986Z,100359.13
2023-04-18T07:17:32.990Z,100366.81
2023-04-18T07:20:00.066Z,100361.97
2023-04-18T07:22:27.127Z,100352.75
2023-04-18T07:24:54.721Z,100376.03
2023-04-18T07:27:21.622Z,100360.50
2023-04-18T07:29:48.564Z,100350.59
2023-04-18T07:32:15.876Z,100376.69
2023-04-18T07:34:42.815Z,100376.37
2023-04-18T07:37:09.898Z,100373.63
2023-04-18T07:39:36.920Z,100374.47
2023-04-18T07:42:04.289Z,100383.31
2023-04-18T07:44:31.780Z,100376.56
2023-04-18T07:46:58.897Z,100374.84
2023-04-18T07:49:26.244Z,100380.66
2023-04-18T07:51:53.495Z,100382.03
2023-04-18T07:54:20.441Z,100384.25
2023-04-18T07:56:47.935Z,100380.41
2023-04-18T07:59:16.760Z,100387.13
2023-04-18T08:01:44.556Z,100376.84
2023-04-18T08:04:12.856Z,100391.44
2023-04-18T08:06:40.524Z,100389.06
2023-04-18T08:09:09.099Z,100389.34
2023-04-18T08:11:36.046Z,100393.50
2023-04-18T08:14:02.949Z,100392.28
2023-04-18T08:16:29.933Z,100378.88
2023-04-18T08:18:57.066Z,100397.28
2023-04-18T08:21:24.087Z,100398.38
2023-04-18T08:23:51.715Z,100394.91
2023-04-18T08:26:19.703Z,100392.31
2023-04-18T08:28:46.807Z,100383.50
2023-04-18T08:31:16.389Z,100403.50
2023-04-18T08:33:43.628Z,100396.22
2023-04-18T08:36:11.647Z,100387.25
2023-04-18T08:38:38.850Z,100404.56
2023-04-18T08:41:05.751Z,100396.97
2023-04-18T08:43:32.866Z,100395.28
2023-04-18T08:46:01.085Z,100401.66
2023-04-18T08:48:28.433Z,100394.59
2023-04-18T08:50:59.690Z,100380.38
2023-04-18T08:53:27.180Z,100387.59
2023-04-18T08:55:58.059Z,100393.06
2023-04-18T08:58:27.605Z,100398.56
2023-04-18T09:00:55.262Z,100395.97
2023-04-18T09:03:43.272Z,100393.69
2023-04-18T09:06:25.547Z,100402.38
2023-04-18T09:08:59.124Z,100399.91
2023-04-18T09:11:29.978Z,100406.28
2023-04-18T09:13:59.321Z,100400.72
2023-04-18T09:16:27.831Z,100401.03
2023-04-18T09:19:18.563Z,100396.75
2023-04-18T09:21:50.262Z,100407.59
2023-04-18T09:24:24.435Z,100395.72
2023-04-18T09:26:53.884Z,100407.56
2023-04-18T09:29:24.561Z,100392.19
2023-04-18T09:32:01.847Z,100400.28
2023-04-18T09:34:29.406Z,100404.28
2023-04-18T09:37:14.478Z,100390.06
2023-04-18T09:39:44.270Z,100388.78
2023-04-18T09:42:11.666Z,100385.47
2023-04-18T09:44:57.392Z,100399.53
2023-04-18T09:47:24.516Z,100409.59
2023-04-18T09:49:51.514Z,100396.50
2023-04-18T09:52:20.635Z,100397.66
2023-04-18T09:54:49.506Z,100387.41
2023-04-18T09:57:17.868Z,100397.41
2023-04-18T09:59:51.935Z,100402.56
2023-04-18T10:02:22.288Z,100398.31
2023-04-18T10:04:54.532Z,100400.03
2023-04-18T10:07:24.763Z,100392.78
2023-04-18T10:09:52.395Z,100392.69
2023-04-18T10:12:20.053Z,100385.56
2023-04-18T10:14:47.338Z,100394.97
2023-04-18T10:17:15.613Z,100395.41
2023-04-18T10:19:46.050Z,100398.34
2023-04-18T10:22:13.579Z,100389.75
2023-04-18T10:24:50.046Z,100375.28
2023-04-18T10:27:17.878Z,100383.41
2023-04-18T10:29:51.960Z,100384.31
2023-04-18T10:32:28.716Z,100385.91
2023-04-18T10:34:56.280Z,100389.16
2023-04-18T10:37:25.952Z,100380.03
2023-04-18T10:39:58.367Z,100386.53
2023-04-18T10:42:45.535Z,100382.66
2023-04-18T10:45:25.809Z,100378.25
2023-04-18T10:48:32.825Z,100375.53
2023-04-18T10:51:16.599Z,100376.41
2023-04-18T10:53:57.868Z,100375.97
2023-04-18T10:56:26.206Z,100372.13
2023-04-18T10:58:54.075Z,100361.22
2023-04-18T11:01:33.248Z,100367.97
2023-04-18T11:04:03.447Z,100374.06
2023-04-18T11:06:31.394Z,100359.13
2023-04-18T11:09:14.513Z,100363.25
2023-04-18T11:11:42.451Z,100348.66
2023-04-18T11:14:09.603Z,100361.47
2023-04-18T11:16:37.002Z,100363.66
2023-04-18T11:19:25.904Z,100361.97
2023-04-18T11:21:52.941Z,100367.00
2023-04-18T11:24:24.508Z,100356.56
2023-04-18T11:26:56.287Z,100365.69
2023-04-18T11:29:23.808Z,100358.13
2023-04-18T11:31:55.987Z,100367.62
2023-04-18T11:34:32.566Z,100374.31
2023-04-18T11:37:00.352Z,100361.12
2023-04-18T11:39:27.969Z,100353.88
2023-04-18T11:41:57.158Z,100359.66
2023-04-18T11:44:25.382Z,100365.72
2023-04-18T11:46:53.435Z,100358.25
2023-04-18T11:49:28.923Z,100347.19
2023-04-18T11:51:56.502Z,100356.19
2023-04-18T11:54:43.418Z,100355.31
2023-04-18T11:57:30.085Z,100353.62
2023-04-18T11:59:59.276Z,100363.09
2023-04-18T12:02:47.074Z,100348.47
2023-04-18T12:05:25.914Z,100340.22
2023-04-18T12:07:53.337Z,100349.00
2023-04-18T12:10:20.192Z,100336.94
2023-04-18T12:12:56.501Z,100355.41
2023-04-18T12:15:27.293Z,100354.28
2023-04-18T12:18:00.031Z,100344.84
2023-04-18T12:20:46.360Z,100352.59
2023-04-18T12:23:29.784Z,100354.25
2023-04-18T12:26:04.719Z,100344.09
2023-04-18T12:28:32.788Z,100351.28
2023-04-18T12:30:59.821Z,100350.38
2023-04-18T12:33:26.978Z,100349.31
2023-04-18T12:35:54.167Z,100355.63
2023-04-18T12:38:22.357Z,100354.09
2023-04-18T12:40:50.907Z,100353.91
2023-04-18T12:43:18.713Z,100348.81
2023-04-18T12:45:46.750Z,100352.87
2023-04-18T12:48:14.049Z,100350.72
2023-04-18T12:50:40.979Z,100347.19
2023-04-18T12:53:08.215Z,100351.31
2023-04-18T12:55:35.164Z,100335.41
2023-04-18T12:58:02.254Z,100352.94
2023-04-18T13:00:31.427Z,100352.28
2023-04-18T13:02:58.801Z,100338.66
2023-04-18T13:05:29.871Z,100341.03
2023-04-18T13:08:15.307Z,100337.16
2023-04-18T13:10:44.589Z,100339.09
2023-04-18T13:13:11.961Z,100334.91
2023-04-18T13:15:38.974Z,100336.69
2023-04-18T13:18:06.425Z,100342.22
2023-04-18T13:20:34.663Z,100340.81
2023-04-18T13:23:02.972Z,100344.94
2023-04-18T13:25:30.093Z,100336.34
2023-04-18T13:27:58.602Z,100339.94
2023-04-18T13:30:26.092Z,100339.66
2023-04-18T13:32:55.055Z,100341.41
2023-04-18T13:35:22.608Z,100348.31
2023-04-18T13:37:49.674Z,100328.91
2023-04-18T13:40:16.709Z,100344.12
2023-04-18T13:42:43.581Z,100339.63
2023-04-18T13:45:11.242Z,100333.69
2023-04-18T13:47:38.371Z,100357.12
2023-04-18T13:50:07.054Z,100346.19
2023-04-18T13:52:34.397Z,100340.59
2023-04-18T13:55:01.900Z,100337.44
2023-04-18T13:57:32.151Z,100344.72
2023-04-18T13:59:59.441Z,100334.81
2023-04-18T14:02:26.718Z,100332.13
2023-04-18T14:04:54.936Z,100341.75
2023-04-18T14:07:22.132Z,100330.50
2023-04-18T14:09:49.296Z,100349.69
2023-04-18T14:12:16.207Z,100335.09
2023-04-18T14:14:43.196Z,100338.25
2023-04-18T14:17:10.375Z,100329.59
2023-04-18T14:19:37.328Z,100333.56
2023-04-18T14:22:04.507Z,100329.38
2023-04-18T14:24:31.475Z,100337.03
2023-04-18T14:26:58.420Z,100332.22
2023-04-18T14:29:25.525Z,100325.81
2023-04-18T14:31:52.442Z,100326.25
2023-04-18T14:34:19.361Z,100325.66
2023-04-18T14:36:46.986Z,100306.84
2023-04-18T14:39:14.086Z,100317.69
2023-04-18T14:41:41.603Z,100332.28
2023-04-18T14:44:08.861Z,100331.56
2023-04-18T14:46:35.763Z,100320.06
2023-04-18T14:49:03.215Z,100313.47
2023-04-18T14:51:31.266Z,100328.09
2023-04-18T14:53:58.580Z,100330.09
2023-04-18T14:56:26.559Z,100317.84
2023-04-18T14:58:53.593Z,100316.88
2023-04-18T15:01:21.024Z,100314.41
2023-04-18T15:03:51.064Z,100320.31
2023-04-18T15:06:18.732Z,100312.63
2023-04-18T15:08:49.997Z,100318.31
2023-04-18T15:11:17.360Z,100326.62
2023-04-18T15:13:44.824Z,100321.84
2023-04-18T15:16:12.108Z,100296.88
2023-04-18T15:18:39.713Z,100321.97
2023-04-18T15:21:07.736Z,100311.81
2023-04-18T15:23:35.387Z,100309.78
2023-04-18T15:26:03.309Z,100312.56
2023-04-18T15:28:31.199Z,100321.09
2023-04-18T15:30:58.894Z,100295.88
2023-04-18T15:33:26.532Z,100315.31
2023-04-18T15:35:55.543Z,100318.59
2023-04-18T15:38:22.816Z,100317.91
2023-04-18T15:40:50.108Z,100310.91
2023-04-18T15:43:17.619Z,100298.16
2023-04-18T15:45:44.741Z,100315.78
2023-04-18T15:48:13.309Z,100307.72
2023-04-18T15:50:42.213Z,100321.56
2023-04-18T15:53:09.508Z,100324.25
2023-04-18T15:55:37.040Z,100303.84
2023-04-18T15:58:03.961Z,100315.44
2023-04-18T16:00:31.067Z,100322.47
2023-04-18T16:02:58.565Z,100318.31
2023-04-18T16:05:26.431Z,100309.25
2023-04-18T16:07:56.188Z,100318.16
2023-04-18T16:10:24.027Z,100309.03
2023-04-18T16:12:51.028Z,100320.38
2023-04-18T16:15:17.961Z,100310.91
2023-04-18T16:17:45.620Z,100324.63
2023-04-18T16:20:13.214Z,100333.53
2023-04-18T16:22:40.588Z,100333.66
2023-04-18T16:25:08.408Z,100323.38
2023-04-18T16:27:35.500Z,100329.84
2023-04-18T16:30:03.455Z,100328.56
2023-04-18T16:32:31.866Z,100334.44
2023-04-18T16:34:58.894Z,100332.37
2023-04-18T16:37:26.392Z,100328.00
2023-04-18T16:39:53.572Z,100354.34
2023-04-18T16:42:20.647Z,100338.75
2023-04-18T16:44:48.226Z,100342.81
2023-04-18T16:47:15.410Z,100333.56
2023-04-18T16:49:44.126Z,100343.03
2023-04-18T16:52:12.396Z,100333.56
2023-04-18T16:54:40.681Z,100350.84
2023-04-18T16:57:08.004Z,100349.75
2023-04-18T16:59:35.033Z,100352.69
2023-04-18T17:02:10.179Z,100338.34
2023-04-18T17:04:37.582Z,100344.69
2023-04-18T17:07:04.706Z,100357.91
2023-04-18T17:09:32.010Z,100364.50
2023-04-18T17:11:59.476Z,100350.31
2023-04-18T17:14:26.793Z,100361.34
2023-04-18T17:16:54.003Z,100358.56
2023-04-18T17:19:23.454Z,100359.53
2023-04-18T17:21:51.545Z,100369.31
2023-04-18T17:24:18.867Z,100349.31
2023-04-18T17:26:45.870Z,100369.66
2023-04-18T17:29:13.067Z,100373.66
2023-04-18T17:31:40.504Z,100371.56
2023-04-18T17:34:07.817Z,100372.44
2023-04-18T17:36:35.126Z,100357.19
2023-04-18T17:39:09.683Z,100376.06
2023-04-18T17:41:38.577Z,100373.09
2023-04-18T17:44:08.734Z,100377.22
2023-04-18T17:46:36.818Z,100378.72
2023-04-18T17:49:05.393Z,100382.53
2023-04-18T17:51:32.801Z,100375.44
2023-04-18T17:54:00.358Z,100384.97
2023-04-18T17:56:29.229Z,100387.22
2023-04-18T17:58:57.830Z,100369.78
2023-04-18T18:01:26.580Z,100363.38
2023-04-18T18:03:54.579Z,100388.94
2023-04-18T18:06:22.027Z,100377.69
2023-04-18T18:08:49.710Z,100379.63
2023-04-18T18:11:22.194Z,100394.09
2023-04-18T18:13:55.855Z,100384.03
2023-04-18T18:16:24.606Z,100398.44
2023-04-18T18:18:53.060Z,100400.38
2023-04-18T18:21:20.516Z,100389.41
2023-04-18T18:23:48.253Z,100407.91
2023-04-18T18:26:16.427Z,100412.50
2023-04-18T18:28:44.427Z,100408.66
2023-04-18T18:31:12.118Z,100425.56
2023-04-18T18:33:41.440Z,100417.94
2023-04-18T18:36:09.327Z,100405.06
2023-04-18T18:38:38.204Z,100419.69
2023-04-18T18:41:06.513Z,100420.88
2023-04-18T18:43:34.805Z,100449.75
2023-04-18T18:46:02.648Z,100443.59
2023-04-18T18:48:31.743Z,100442.59
2023-04-18T18:51:00.926Z,100426.22
2023-04-18T18:53:28.168Z,100446.38
2023-04-18T18:55:55.167Z,100445.88
2023-04-18T18:58:23.117Z,100443.91
2023-04-18T19:00:51.690Z,100453.56
2023-04-18T19:03:21.975Z,100450.63
2023-04-18T19:05:50.385Z,100448.44
2023-04-18T19:08:18.078Z,100466.66
2023-04-18T19:10:47.238Z,100464.56
2023-04-18T19:13:19.200Z,100460.28
2023-04-18T19:15:46.636Z,100464.69
2023-04-18T19:18:14.694Z,100468.19
2023-04-18T19:20:42.976Z,100469.69
2023-04-18T19:23:10.556Z,100470.50
2023-04-18T19:25:38.973Z,100475.00
2023-04-18T19:28:07.257Z,100470.69
2023-04-18T19:30:34.998Z,100479.88
2023-04-18T19:33:03.204Z,100477.94
2023-04-18T19:35:31.076Z,100476.41
2023-04-18T19:38:01.782Z,100466.06
2023-04-18T19:40:30.332Z,100486.66
2023-04-18T19:42:59.108Z,100478.72
2023-04-18T19:45:26.835Z,100463.72
2023-04-18T19:47:56.824Z,100481.94
2023-04-18T19:50:24.490Z,100487.00
2023-04-18T19:52:52.374Z,100464.63
2023-04-18T19:55:19.937Z,100487.50
2023-04-18T19:57:47.836Z,100478.34
2023-04-18T20:00:16.018Z,100482.25
2023-04-18T20:02:44.887Z,100490.06
2023-04-18T20:05:12.961Z,100476.12
2023-04-18T20:07:41.989Z,100473.78
2023-04-18T20:10:09.991Z,100487.03
2023-04-18T20:12:41.793Z,100475.06
2023-04-18T20:15:09.213Z,100491.25
2023-04-18T20:17:36.492Z,100485.38
2023-04-18T20:20:05.680Z,100484.41
2023-04-18T20:22:33.162Z,100486.22
2023-04-18T20:25:02.316Z,100494.22
2023-04-18T20:27:29.752Z,100476.03
2023-04-18T20:29:57.484Z,100493.44
2023-04-18T20:32:25.200Z,100485.69
2023-04-18T20:34:52.564Z,100498.63
2023-04-18T20:37:20.233Z,100502.38
2023-04-18T20:39:48.095Z,100508.09
2023-04-18T20:42:16.073Z,100507.94
2023-04-18T20:44:44.933Z,100512.41
2023-04-18T20:47:13.834Z,100513.22
2023-04-18T20:49:42.512Z,100508.75
2023-04-18T20:52:09.806Z,100513.19
2023-04-18T20:54:36.964Z,100517.44
2023-04-18T20:57:04.221Z,100511.34
2023-04-18T20:59:31.145Z,100488.75
2023-04-18T21:01:58.610Z,100492.22
2023-04-18T21:04:25.938Z,100491.34
2023-04-18T21:06:53.111Z,100503.47
2023-04-18T21:09:20.129Z,100496.50
2023-04-18T21:11:47.101Z,100483.63
2023-04-18T21:14:14.318Z,100497.53
2023-04-18T21:16:41.384Z,100467.56
2023-04-18T21:19:08.742Z,100496.53
2023-04-18T21:21:36.711Z,100490.63
2023-04-18T21:24:03.817Z,100489.59
2023-04-18T21:26:30.761Z,100486.16
2023-04-18T21:29:04.375Z,100489.84
2023-04-18T21:31:33.390Z,100494.37
2023-04-18T21:34:03.130Z,100485.44
2023-04-18T21:36:31.272Z,100489.91
2023-04-18T21:39:00.927Z,100488.09
2023-04-18T21:41:28.119Z,100492.72
2023-04-18T21:43:55.103Z,100473.28
2023-04-18T21:46:22.220Z,100486.53
2023-04-18T21:48:49.475Z,100482.22
2023-04-18T21:51:17.394Z,100485.63
2023-04-18T21:53:44.612Z,100478.69
2023-04-18T21:56:11.636Z,100482.31
2023-04-18T21:58:38.623Z,100476.16
2023-04-18T22:01:06.007Z,100478.00
2023-04-18T22:03:34.217Z,100467.41
2023-04-18T22:06:01.737Z,100470.06
2023-04-18T22:08:29.506Z,100467.47
2023-04-18T22:10:58.333Z,100461.41
2023-04-18T22:13:30.236Z,100455.41
2023-04-18T22:15:58.380Z,100456.28
2023-04-18T22:18:25.444Z,100450.94
2023-04-18T22:20:53.688Z,100458.78
2023-04-18T22:23:20.778Z,100453.50
2023-04-18T22:25:48.416Z,100446.72
2023-04-18T22:28:15.682Z,100445.16
2023-04-18T22:30:42.580Z,100438.31
2023-04-18T22:33:09.510Z,100452.12
2023-04-18T22:35:36.410Z,100448.56
2023-04-18T22:38:03.358Z,100447.88
2023-04-18T22:40:30.226Z,100447.31
2023-04-18T22:42:57.142Z,100445.72
2023-04-18T22:45:24.067Z,100439.25
2023-04-18T22:47:51.029Z,100429.03
2023-04-18T22:50:18.153Z,100437.53
2023-04-18T22:52:44.997Z,100437.44
2023-04-18T22:55:13.765Z,100425.94
2023-04-18T22:57:40.724Z,100425.94
2023-04-18T23:00:10.220Z,100422.56
2023-04-18T23:02:37.274Z,100420.69
2023-04-18T23:05:06.918Z,100421.66
2023-04-18T23:07:33.834Z,100414.50
2023-04-18T23:10:00.832Z,100419.87
2023-04-18T23:12:27.861Z,100419.00
2023-04-18T23:14:54.727Z,100418.28
2023-04-18T23:17:21.552Z,100401.69
2023-04-18T23:19:48.457Z,100413.97
2023-04-18T23:22:15.424Z,100407.66
2023-04-18T23:24:42.315Z,100407.50
2023-04-18T23:27:09.204Z,100397.94
2023-04-18T23:29:38.019Z,100396.22
2023-04-18T23:32:06.352Z,100396.94
2023-04-18T23:34:33.457Z,100391.59
2023-04-18T23:37:00.905Z,100388.88
2023-04-18T23:39:27.861Z,100378.31
2023-04-18T23:42:12.829Z,100381.97
2023-04-18T23:44:58.994Z,100370.62
2023-04-18T23:47:25.966Z,100379.59
2023-04-18T23:49:52.989Z,100354.28
2023-04-18T23:52:19.928Z,100364.62
2023-04-18T23:54:46.744Z,100369.44
2023-04-18T23:57:13.609Z,100367.84
2023-04-18T23:59:40.497Z,100368.66
